Time;durP1;ratioP1;P1;durP2;ratioP2;P2;SDS_P1;SDS_P2;PMS_P1;PMS_P2;Temp;Humidity;BMP_temperature;BMP_pressure;BME280_temperature;BME280_humidity;BME280_pressure;Samples;Min_cycle;Max_cycle;Signal;HPM_P1;HPM_P2
2022/09/05 00:02:28;;;;;;;7.97;6.28;;;;;;;18.82;85.20;101181.28;5026424;28;20092;-82
2022/09/05 00:05:06;;;;;;;11.32;6.68;;;;;;;18.73;85.50;101175.31;5019187;28;20093;-84
2022/09/05 00:07:40;;;;;;;9.63;6.60;;;;;;;18.74;85.72;101184.09;5020258;28;20068;-83
2022/09/05 00:10:19;;;;;;;7.45;6.43;;;;;;;18.66;86.55;101177.09;5038667;28;20056;-82
2022/09/05 00:12:47;;;;;;;8.00;6.28;;;;;;;18.58;86.75;101175.41;5038623;28;20060;-85
2022/09/05 00:15:22;;;;;;;8.63;6.85;;;;;;;18.61;86.92;101184.81;5036789;28;20132;-80
2022/09/05 00:18:10;;;;;;;8.57;6.10;;;;;;;18.59;86.66;101176.22;5018923;28;20054;-83
2022/09/05 00:20:48;;;;;;;7.70;6.47;;;;;;;18.56;86.94;101187.19;5020397;28;20104;-83
2022/09/05 00:23:27;;;;;;;6.95;6.05;;;;;;;18.57;86.65;101175.59;5018429;28;20050;-82
2022/09/05 00:26:17;;;;;;;9.80;7.00;;;;;;;18.50;87.26;101187.97;5017630;28;20050;-83
2022/09/05 00:28:52;;;;;;;8.18;6.05;;;;;;;18.56;86.97;101195.16;5022388;28;20046;-82
2022/09/05 00:31:33;;;;;;;7.38;5.93;;;;;;;18.54;87.05;101174.16;5028935;28;20120;-83
2022/09/05 00:34:14;;;;;;;7.22;6.22;;;;;;;18.53;87.08;101182.28;5017911;28;20085;-84
2022/09/05 00:36:53;;;;;;;8.25;6.00;;;;;;;18.49;87.26;101181.03;5017740;28;20046;-83
2022/09/05 00:39:25;;;;;;;7.57;5.80;;;;;;;18.43;87.63;101179.19;5028717;28;20370;-82
2022/09/05 00:41:59;;;;;;;6.57;5.88;;;;;;;18.34;88.00;101197.06;5037951;28;20068;-82
2022/09/05 00:44:30;;;;;;;9.63;6.40;;;;;;;18.30;88.59;101190.50;5037510;28;20109;-82
2022/09/05 00:47:06;;;;;;;9.73;6.60;;;;;;;18.19;89.33;101194.50;5035828;28;20460;-82
2022/09/05 00:49:40;;;;;;;8.55;7.03;;;;;;;18.15;89.80;101201.19;5018794;28;20046;-82
2022/09/05 00:52:15;;;;;;;9.15;6.63;;;;;;;18.14;89.90;101193.44;5019005;28;20094;-83
2022/09/05 00:54:56;;;;;;;8.77;7.22;;;;;;;18.12;90.37;101193.63;5021483;28;20469;-84
2022/09/05 00:57:54;;;;;;;11.68;7.07;;;;;;;18.03;90.63;101189.47;5037941;28;20081;-84
2022/09/05 01:04:02;;;;;;;7.82;7.00;;;;;;;17.87;91.58;101187.94;5010935;28;20153;-84
2022/09/05 01:33:15;;;;;;;7.53;6.72;;;;;;;17.56;93.66;101205.91;4905298;28;20136;-83
2022/09/05 01:36:52;;;;;;;;;;;;;;;;;;;;;
2022/09/05 01:39:54;;;;;;;8.20;6.65;;;;;;;17.46;94.19;101208.88;4924564;29;20103;-82
2022/09/05 01:42:52;;;;;;;10.98;6.85;;;;;;;17.28;94.18;101184.66;4940821;29;20483;-83
2022/09/05 01:48:39;;;;;;;12.32;8.00;;;;;;;17.27;94.79;101182.19;5008153;28;20054;-82
2022/09/05 01:51:23;;;;;;;13.00;8.52;;;;;;;17.25;95.20;101192.94;5017327;28;20120;-82
2022/09/05 01:53:57;;;;;;;12.23;9.90;;;;;;;17.17;95.51;101185.13;5017227;28;20108;-82
2022/09/05 01:56:42;;;;;;;14.27;9.88;;;;;;;17.20;95.29;101190.03;5023286;28;20680;-78
2022/09/05 01:59:23;;;;;;;12.18;10.38;;;;;;;17.24;94.99;101183.38;5021272;28;20422;-83
2022/09/05 02:02:05;;;;;;;11.65;10.20;;;;;;;17.25;94.59;101183.19;5021136;28;20078;-82
2022/09/05 02:04:58;;;;;;;12.77;10.50;;;;;;;17.22;94.61;101178.28;5018974;28;20535;-80
2022/09/05 02:07:37;;;;;;;15.43;11.57;;;;;;;17.17;94.78;101187.75;5017036;28;20571;-81
2022/09/05 02:10:40;;;;;;;15.00;11.85;;;;;;;17.15;94.82;101187.13;5015986;28;20489;-81
2022/09/05 02:13:20;;;;;;;13.90;11.73;;;;;;;17.14;94.97;101185.50;4985121;28;20520;-82
2022/09/05 02:15:52;;;;;;;16.17;12.32;;;;;;;17.16;94.88;101202.00;5016293;28;20049;-81
2022/09/05 02:18:23;;;;;;;14.73;13.23;;;;;;;17.07;94.68;101188.06;5016541;28;20046;-80
2022/09/05 02:20:57;;;;;;;16.42;12.95;;;;;;;17.04;94.70;101188.41;5016810;28;20080;-81
2022/09/05 02:23:33;;;;;;;13.35;11.32;;;;;;;16.97;94.95;101199.94;5017057;28;20050;-80
2022/09/05 02:26:07;;;;;;;15.07;11.55;;;;;;;16.92;95.26;101192.56;5017019;28;20136;-80
2022/09/05 02:28:53;;;;;;;13.85;11.88;;;;;;;16.81;95.92;101201.75;5016027;28;20469;-81
2022/09/05 02:31:28;;;;;;;12.45;11.15;;;;;;;16.68;96.09;101198.94;5024672;28;20041;-81
2022/09/05 02:34:02;;;;;;;14.48;11.50;;;;;;;16.74;96.22;101211.41;5022911;28;20129;-81
2022/09/05 02:36:38;;;;;;;13.85;12.32;;;;;;;16.65;96.58;101201.13;5018145;28;20085;-82
2022/09/05 02:39:17;;;;;;;14.00;12.40;;;;;;;16.63;96.62;101195.97;5033084;28;20077;-82
2022/09/05 02:41:54;;;;;;;14.18;12.52;;;;;;;16.66;97.00;101195.66;5036998;28;20137;-82
2022/09/05 02:44:34;;;;;;;13.90;12.50;;;;;;;16.69;96.67;101197.09;5061567;22;20071;-80
2022/09/05 02:47:21;;;;;;;13.80;12.05;;;;;;;16.64;96.65;101197.66;5039814;28;20045;-80
2022/09/05 02:50:11;;;;;;;15.27;12.77;;;;;;;16.50;96.37;101179.97;5054045;28;20045;-80
2022/09/05 02:52:44;;;;;;;14.43;12.68;;;;;;;16.57;96.90;101194.88;5053516;28;20055;-80
2022/09/05 02:55:24;;;;;;;13.90;12.40;;;;;;;16.46;96.99;101178.69;5034652;28;20080;-80
2022/09/05 02:58:11;;;;;;;13.30;11.60;;;;;;;16.47;97.04;101180.31;5038969;28;20534;-79
2022/09/05 03:00:48;;;;;;;15.15;11.93;;;;;;;16.50;97.49;101198.47;5043624;28;20057;-80
2022/09/05 03:06:42;;;;;;;13.10;11.07;;;;;;;16.39;98.04;101186.50;5034563;28;20132;-81
2022/09/05 03:10:08;;;;;;;13.77;10.57;;;;;;;16.55;98.01;101201.34;5049510;28;20056;-80
2022/09/05 03:13:18;;;;;;;13.52;10.93;;;;;;;16.54;97.99;101212.94;5058265;28;20045;-80
2022/09/05 03:23:34;;;;;;;12.95;11.32;;;;;;;16.26;98.26;101186.28;4977827;28;19946;-81
2022/09/05 03:34:20;;;;;;;16.00;12.70;;;;;;;16.20;98.70;101189.66;4949470;28;20047;-80
2022/09/05 03:37:25;;;;;;;17.33;11.27;;;;;;;16.21;98.36;101184.19;4900065;28;20104;-80
2022/09/05 03:40:25;;;;;;;13.60;11.38;;;;;;;16.32;98.73;101205.88;4978620;28;20510;-80
2022/09/05 03:43:18;;;;;;;15.65;11.88;;;;;;;16.21;98.94;101188.66;5040008;28;20704;-80
2022/09/05 03:46:15;;;;;;;15.43;11.07;;;;;;;16.25;99.11;101211.06;5022189;28;20473;-81
2022/09/05 03:49:23;;;;;;;14.18;11.90;;;;;;;16.13;99.44;101184.25;5042806;28;20111;-82
2022/09/05 03:52:21;;;;;;;14.05;12.07;;;;;;;16.23;99.69;101219.16;5045271;28;20118;-82
2022/09/05 03:55:12;;;;;;;12.68;11.18;;;;;;;16.15;99.45;101205.19;5061359;28;20443;-81
2022/09/05 03:58:00;;;;;;;15.82;12.13;;;;;;;16.05;99.63;101194.09;5056701;28;20056;-81
2022/09/05 04:00:41;;;;;;;14.68;11.63;;;;;;;16.05;100.00;101200.19;5059122;28;20052;-80
2022/09/05 04:03:26;;;;;;;14.05;12.27;;;;;;;16.10;99.90;101205.72;5060491;28;20056;-80
2022/09/05 04:06:12;;;;;;;16.67;11.45;;;;;;;16.12;100.00;101214.28;5051857;28;20133;-80
2022/09/05 04:08:50;;;;;;;13.38;11.68;;;;;;;16.05;100.00;101208.13;5044296;28;20577;-81
2022/09/05 04:11:26;;;;;;;13.88;11.15;;;;;;;15.87;100.00;101187.28;5042533;28;20435;-82
2022/09/05 04:14:00;;;;;;;13.40;11.25;;;;;;;15.89;100.00;101195.03;5043927;28;20112;-82
2022/09/05 04:16:32;;;;;;;15.60;11.00;;;;;;;15.99;100.00;101211.47;5046003;28;20084;-82
2022/09/05 04:22:13;;;;;;;11.95;10.45;;;;;;;15.91;100.00;101196.50;5047045;28;20045;-81
2022/09/05 04:25:00;;;;;;;11.75;10.32;;;;;;;15.92;100.00;101194.69;5044390;28;20050;-81
2022/09/05 04:27:40;;;;;;;13.85;10.65;;;;;;;16.01;100.00;101225.31;5043863;28;20050;-81
2022/09/05 04:30:28;;;;;;;14.00;9.88;;;;;;;16.01;100.00;101220.03;5051493;28;20052;-81
2022/09/05 04:33:20;;;;;;;11.32;9.82;;;;;;;15.80;100.00;101196.91;5043549;28;20041;-81
2022/09/05 04:35:59;;;;;;;10.98;9.55;;;;;;;15.83;100.00;101198.38;5049245;28;20569;-81
2022/09/05 04:38:45;;;;;;;11.82;9.18;;;;;;;15.80;100.00;101206.66;5062902;28;20460;-81
2022/09/05 04:41:28;;;;;;;12.18;9.60;;;;;;;15.82;100.00;101199.38;5063904;28;20067;-81
2022/09/05 04:44:08;;;;;;;12.82;9.82;;;;;;;15.77;100.00;101202.53;5062192;28;20049;-81
2022/09/05 04:47:21;;;;;;;14.38;9.20;;;;;;;15.74;100.00;101197.63;5057029;28;20114;-79
2022/09/05 04:50:11;;;;;;;13.85;9.07;;;;;;;15.75;100.00;101201.06;5055415;28;20083;-78
2022/09/05 04:52:55;;;;;;;12.27;9.20;;;;;;;15.78;100.00;101214.75;5037168;28;20050;-79
2022/09/05 04:55:30;;;;;;;13.02;9.10;;;;;;;15.81;100.00;101224.13;5035691;28;20064;-78
2022/09/05 04:58:09;;;;;;;14.40;9.95;;;;;;;15.69;100.00;101204.41;5037109;28;20073;-78
2022/09/05 05:00:56;;;;;;;17.65;10.52;;;;;;;15.69;100.00;101209.69;5039027;28;20067;-79
2022/09/05 05:03:29;;;;;;;17.38;9.18;;;;;;;15.72;100.00;101219.88;5037716;28;20127;-80
2022/09/05 05:06:02;;;;;;;13.52;9.65;;;;;;;15.79;100.00;101226.13;5043014;28;20506;-80
2022/09/05 05:08:34;;;;;;;14.27;8.82;;;;;;;15.91;100.00;101236.09;5061095;28;20077;-79
2022/09/05 05:11:06;;;;;;;28.40;9.93;;;;;;;15.97;100.00;101236.38;5063888;28;20124;-79
2022/09/05 05:13:42;;;;;;;16.50;9.45;;;;;;;16.01;100.00;101241.16;5065981;28;20076;-80
2022/09/05 05:16:14;;;;;;;13.13;8.75;;;;;;;16.59;97.69;101244.91;5049154;28;20087;-80
2022/09/05 05:18:45;;;;;;;11.90;7.40;;;;;;;17.04;94.65;101243.94;5042073;28;20049;-78
2022/09/05 05:21:17;;;;;;;17.02;7.22;;;;;;;17.42;92.29;101251.75;5045133;28;20040;-80
2022/09/05 05:23:48;;;;;;;15.23;8.15;;;;;;;17.42;91.55;101249.94;5063150;28;20049;-80
2022/09/05 05:26:22;;;;;;;18.02;8.13;;;;;;;17.40;91.64;101256.41;5054135;28;20046;-79
2022/09/05 05:28:58;;;;;;;12.57;7.65;;;;;;;17.67;91.11;101250.44;5044886;28;20045;-79
2022/09/05 05:31:28;;;;;;;16.85;7.93;;;;;;;17.32;92.08;101259.16;5046692;28;20041;-80
2022/09/05 05:33:58;;;;;;;17.70;8.05;;;;;;;17.05;93.02;101255.34;5049805;28;20050;-79
2022/09/05 05:36:29;;;;;;;13.57;7.80;;;;;;;16.84;94.31;101253.44;5046564;28;20049;-79
2022/09/05 05:39:02;;;;;;;12.93;7.90;;;;;;;16.65;95.25;101260.06;5042937;28;20077;-79
2022/09/05 05:41:41;;;;;;;11.40;7.82;;;;;;;16.73;95.54;101245.97;5043844;28;20108;-79
2022/09/05 05:44:15;;;;;;;14.60;8.20;;;;;;;16.69;95.58;101269.28;5041805;28;20334;-79
2022/09/05 05:46:46;;;;;;;16.38;7.88;;;;;;;16.68;95.58;101253.59;5041615;28;20081;-79
2022/09/05 05:49:35;;;;;;;13.35;7.53;;;;;;;16.90;95.27;101271.22;5041359;28;20163;-79
2022/09/05 05:52:28;;;;;;;14.35;7.20;;;;;;;17.29;93.18;101273.56;5044956;28;20080;-78
2022/09/05 05:55:01;;;;;;;12.02;7.93;;;;;;;17.17;93.23;101265.28;5037626;28;20049;-79
2022/09/05 05:57:38;;;;;;;9.73;7.10;;;;;;;17.32;92.90;101267.91;5041180;28;20068;-79
2022/09/05 06:00:16;;;;;;;12.02;7.28;;;;;;;17.88;89.81;101265.53;5038812;28;20092;-78
2022/09/05 06:03:19;;;;;;;9.10;7.15;;;;;;;17.58;90.89;101268.22;5036082;28;20092;-77
2022/09/05 06:05:59;;;;;;;15.18;7.60;;;;;;;17.37;92.16;101273.47;5035832;28;20492;-78
2022/09/05 06:08:54;;;;;;;15.77;7.53;;;;;;;17.47;92.04;101276.66;5047643;28;20071;-78
2022/09/05 06:11:49;;;;;;;14.90;7.50;;;;;;;17.57;91.91;101266.56;5059470;28;20045;-79
2022/09/05 06:15:02;;;;;;;12.05;7.53;;;;;;;17.57;91.37;101261.28;5059348;28;20081;-78
2022/09/05 06:18:10;;;;;;;10.13;7.60;;;;;;;18.08;90.28;101266.53;5047749;28;20061;-79
2022/09/05 06:21:24;;;;;;;9.82;6.85;;;;;;;18.99;85.80;101267.44;5057039;28;20510;-77
2022/09/05 06:24:23;;;;;;;11.65;7.65;;;;;;;20.47;79.90;101274.59;5028361;28;20124;-78
2022/09/05 06:27:29;;;;;;;15.25;6.20;;;;;;;20.66;78.34;101279.09;5050567;28;20075;-77
2022/09/05 06:30:01;;;;;;;14.88;5.70;;;;;;;21.28;76.26;101271.56;5061919;28;20048;-79
2022/09/05 06:32:38;;;;;;;14.00;5.95;;;;;;;21.50;75.53;101272.91;5059954;28;20523;-78
2022/09/05 06:35:18;;;;;;;14.48;6.30;;;;;;;21.74;74.08;101290.81;5053374;28;20550;-77
2022/09/05 06:37:53;;;;;;;16.50;5.47;;;;;;;21.90;73.17;101284.16;5054968;28;20084;-78
2022/09/05 06:40:27;;;;;;;11.77;5.30;;;;;;;22.91;70.28;101293.84;5055247;28;20041;-78
2022/09/05 06:43:05;;;;;;;13.23;5.50;;;;;;;23.24;69.18;101299.63;5058457;28;20089;-81
2022/09/05 06:45:58;;;;;;;19.27;5.85;;;;;;;23.20;68.56;101293.09;5060068;28;20154;-80
2022/09/05 06:48:27;;;;;;;;;;;;;;;23.19;68.54;101296.81;5060445;28;20128;-80
2022/09/05 06:51:17;;;;;;;16.98;5.70;;;;;;;24.10;65.96;101296.63;5059795;28;19984;-81
2022/09/05 06:54:09;;;;;;;9.40;5.20;;;;;;;24.89;63.88;101301.72;5047384;28;20103;-79
2022/09/05 06:56:53;;;;;;;9.65;4.93;;;;;;;24.73;63.39;101306.72;5068518;28;20155;-80
2022/09/05 07:00:08;;;;;;;13.95;5.35;;;;;;;23.99;64.93;101304.66;5082084;28;20076;-80
2022/09/05 07:02:39;;;;;;;12.20;5.30;;;;;;;24.36;65.16;101297.31;5041898;28;20103;-79
2022/09/05 07:05:19;;;;;;;7.80;5.30;;;;;;;25.83;60.69;101305.81;5040532;28;20121;-79
2022/09/05 07:07:53;;;;;;;10.52;5.65;;;;;;;24.86;63.23;101307.56;5056812;28;20063;-79
2022/09/05 07:10:27;;;;;;;8.35;5.03;;;;;;;25.66;60.76;101299.59;5059511;28;20075;-79
2022/09/05 07:13:06;;;;;;;8.90;5.10;;;;;;;24.79;62.08;101295.09;5059726;28;20048;-79
2022/09/05 07:15:40;;;;;;;9.52;5.13;;;;;;;25.29;61.36;101310.66;5058203;28;20127;-79
2022/09/05 07:18:17;;;;;;;12.50;4.90;;;;;;;25.59;60.44;101304.25;5060523;28;20095;-79
2022/09/05 07:20:50;;;;;;;32.70;6.63;;;;;;;25.72;60.51;101298.63;5049983;28;20068;-79
2022/09/05 07:23:44;;;;;;;14.95;5.03;;;;;;;26.48;58.31;101301.81;5054492;28;20056;-78
2022/09/05 07:26:11;;;;;;;8.80;4.43;;;;;;;26.19;59.47;101298.38;5041704;28;20049;-79
2022/09/05 07:28:42;;;;;;;9.13;4.30;;;;;;;26.20;58.16;101289.28;5041392;28;20049;-79
2022/09/05 07:31:15;;;;;;;9.20;4.60;;;;;;;26.70;56.92;101295.44;5043400;28;20061;-79
2022/09/05 07:33:45;;;;;;;7.82;4.50;;;;;;;25.66;59.67;101294.22;5040589;28;20393;-79
2022/09/05 07:36:18;;;;;;;8.38;4.60;;;;;;;25.79;58.99;101297.44;5041488;28;20088;-79
2022/09/05 07:38:49;;;;;;;6.55;4.60;;;;;;;26.55;58.30;101305.13;5047292;28;20060;-79
2022/09/05 07:41:22;;;;;;;6.72;4.55;;;;;;;26.68;57.59;101305.63;5061260;28;20079;-79
2022/09/05 07:43:55;;;;;;;7.30;4.53;;;;;;;26.98;55.84;101312.50;5060862;28;20045;-79
2022/09/05 07:46:24;;;;;;;9.20;4.40;;;;;;;27.23;55.75;101299.41;5059073;28;20040;-79
2022/09/05 07:48:55;;;;;;;15.93;4.97;;;;;;;27.91;54.37;101306.06;5060050;28;20045;-79
2022/09/05 07:51:24;;;;;;;16.52;4.47;;;;;;;27.77;55.63;101312.94;5060563;28;20072;-79
2022/09/05 07:53:52;;;;;;;12.15;4.55;;;;;;;28.26;54.02;101302.09;5046046;28;20077;-79
2022/09/05 07:56:41;;;;;;;6.57;4.57;;;;;;;28.39;52.42;101296.25;5052157;28;20049;-80
2022/09/05 07:59:13;;;;;;;15.93;4.93;;;;;;;26.39;56.01;101285.34;5058920;28;20102;-79
2022/09/05 08:01:43;;;;;;;9.40;4.78;;;;;;;27.32;55.16;101300.59;5041212;28;20092;-80
2022/09/05 08:04:24;;;;;;;15.48;6.18;;;;;;;27.89;53.17;101302.00;5039949;28;20109;-79
2022/09/05 08:06:53;;;;;;;18.45;4.97;;;;;;;26.54;56.89;101296.28;5040107;28;20049;-79
2022/09/05 08:09:25;;;;;;;16.02;5.07;;;;;;;26.09;56.37;101290.97;5041659;28;20057;-79
2022/09/05 08:11:56;;;;;;;22.83;5.40;;;;;;;26.46;55.98;101294.03;5045266;28;20515;-79
2022/09/05 08:14:37;;;;;;;14.52;4.70;;;;;;;27.75;53.91;101307.81;5053318;28;20045;-79
2022/09/05 08:17:06;;;;;;;13.30;5.17;;;;;;;28.11;52.07;101293.88;5058883;28;20080;-79
2022/09/05 08:20:01;;;;;;;6.88;4.72;;;;;;;26.41;55.65;101286.72;5059912;28;20081;-78
2022/09/05 08:22:34;;;;;;;8.73;4.55;;;;;;;26.18;56.13;101292.19;5060495;28;20057;-79
2022/09/05 08:25:07;;;;;;;8.15;4.43;;;;;;;25.87;55.97;101298.94;5057564;28;20422;-79
2022/09/05 08:27:48;;;;;;;10.95;4.82;;;;;;;26.25;55.96;101284.00;5052537;28;20049;-78
2022/09/05 08:30:17;;;;;;;12.43;4.57;;;;;;;27.84;52.98;101283.97;5039612;28;20048;-78
2022/09/05 08:32:49;;;;;;;9.57;4.68;;;;;;;27.23;53.58;101294.03;5049751;28;20132;-78
2022/09/05 08:35:23;;;;;;;8.40;4.07;;;;;;;27.02;53.40;101286.75;5035630;28;20128;-78
2022/09/05 08:37:52;;;;;;;9.32;4.43;;;;;;;26.88;54.39;101282.81;5035534;28;20057;-77
2022/09/05 08:40:28;;;;;;;7.97;4.18;;;;;;;27.78;52.83;101292.22;5039523;28;20087;-78
2022/09/05 08:43:03;;;;;;;9.30;4.30;;;;;;;28.09;51.03;101275.28;5052817;28;20052;-78
2022/09/05 08:49:33;;;;;;;9.77;4.32;;;;;;;27.64;52.39;101273.00;4943302;29;20082;-83
2022/09/05 08:52:12;;;;;;;7.82;3.80;;;;;;;27.24;53.44;101266.09;5034353;28;20053;-82
2022/09/05 08:55:02;;;;;;;7.50;4.20;;;;;;;27.28;51.95;101248.41;5045629;28;20132;-83
2022/09/05 08:58:14;;;;;;;13.55;4.40;;;;;;;27.81;51.07;101251.38;5043542;28;20121;-83
2022/09/05 09:01:01;;;;;;;6.20;3.70;;;;;;;28.88;50.40;101277.19;5042659;28;20403;-80
2022/09/05 09:03:38;;;;;;;13.05;4.57;;;;;;;27.35;50.87;101242.84;5036669;28;20046;-82
2022/09/05 09:06:22;;;;;;;11.25;3.90;;;;;;;26.92;51.76;101259.78;5045025;28;20459;-81
2022/09/05 09:09:26;;;;;;;12.20;4.00;;;;;;;26.80;51.69;101241.09;5045472;28;20048;-83
2022/09/05 09:12:03;;;;;;;6.78;4.00;;;;;;;27.25;50.60;101261.53;5023106;28;20054;-83
2022/09/05 09:15:00;;;;;;;14.68;4.40;;;;;;;27.25;50.32;101254.28;5027503;28;20065;-84
2022/09/05 09:17:42;;;;;;;6.15;3.50;;;;;;;28.05;49.84;101266.91;5045724;28;20049;-82
2022/09/05 09:20:38;;;;;;;7.93;4.33;;;;;;;28.51;47.28;101272.66;5044642;28;20061;-82
2022/09/05 09:23:09;;;;;;;9.45;4.15;;;;;;;28.16;48.30;101258.94;5040639;28;20073;-83
2022/09/05 09:25:41;;;;;;;7.23;3.57;;;;;;;27.50;48.80;101261.78;5044868;28;20145;-80
2022/09/05 09:28:42;;;;;;;8.55;3.97;;;;;;;27.88;48.51;101244.72;5043755;28;20104;-80
2022/09/05 09:31:23;;;;;;;7.88;3.85;;;;;;;26.92;49.00;101246.34;5045787;28;20068;-84
2022/09/05 09:34:08;;;;;;;4.93;3.67;;;;;;;27.26;49.69;101257.78;5043685;28;20048;-84
2022/09/05 09:37:01;;;;;;;6.20;3.80;;;;;;;27.58;48.79;101239.03;5049244;28;20049;-83
2022/09/05 09:39:50;;;;;;;6.07;3.30;;;;;;;27.82;46.27;101247.63;5042287;28;20056;-81
2022/09/05 09:42:32;;;;;;;7.50;3.40;;;;;;;28.48;47.18;101246.25;5044811;28;20049;-83
2022/09/05 09:45:28;;;;;;;6.10;4.13;;;;;;;28.73;46.17;101243.72;5044436;28;20053;-81
2022/09/05 09:48:31;;;;;;;7.93;4.10;;;;;;;29.16;46.57;101265.19;5039186;28;20045;-83
2022/09/05 09:51:29;;;;;;;5.60;3.60;;;;;;;29.15;46.09;101256.31;5044274;28;20064;-83
2022/09/05 09:54:16;;;;;;;9.05;3.65;;;;;;;29.04;45.38;101255.44;5042673;28;20381;-82
2022/09/05 09:57:19;;;;;;;8.52;3.58;;;;;;;28.57;43.86;101251.97;5033278;28;20546;-83
2022/09/05 10:00:08;;;;;;;5.30;3.60;;;;;;;28.44;46.37;101247.84;5045475;28;20115;-84
2022/09/05 10:03:22;;;;;;;7.60;4.00;;;;;;;28.46;45.05;101226.84;5041489;28;20649;-83
2022/09/05 10:06:16;;;;;;;5.78;3.50;;;;;;;27.67;45.38;101226.78;4964567;28;20078;-84
2022/09/05 10:09:09;;;;;;;4.15;3.40;;;;;;;28.04;44.83;101243.78;5010489;28;20121;-82
2022/09/05 10:12:05;;;;;;;5.97;3.90;;;;;;;28.08;44.22;101217.97;5048860;28;20049;-84
2022/09/05 10:15:03;;;;;;;5.63;3.40;;;;;;;28.64;43.20;101239.88;5048286;28;20049;-83
2022/09/05 10:17:52;;;;;;;7.57;3.60;;;;;;;28.70;43.60;101225.38;5048731;28;20053;-83
2022/09/05 10:20:47;;;;;;;4.85;3.42;;;;;;;28.05;43.65;101226.56;5051512;28;20072;-82
2022/09/05 10:23:38;;;;;;;11.55;3.70;;;;;;;29.02;41.91;101224.44;5047905;28;20072;-82
2022/09/05 10:26:32;;;;;;;4.53;3.20;;;;;;;29.12;40.05;101221.81;5040574;28;20091;-83
2022/09/05 10:29:07;;;;;;;5.15;3.80;;;;;;;28.90;41.47;101210.41;5044626;28;20057;-84
2022/09/05 10:31:55;;;;;;;6.10;3.70;;;;;;;29.16;41.78;101222.88;5043962;28;20045;-83
2022/09/05 10:34:32;;;;;;;6.22;3.70;;;;;;;29.45;42.18;101217.03;5044323;28;20046;-82
2022/09/05 10:37:10;;;;;;;6.45;3.97;;;;;;;28.60;41.69;101217.25;5045422;28;20076;-85
2022/09/05 10:39:46;;;;;;;4.13;3.60;;;;;;;28.76;41.81;101206.56;5043836;28;20053;-82
2022/09/05 10:42:25;;;;;;;8.20;3.80;;;;;;;29.27;40.95;101216.47;5041823;28;20053;-84
2022/09/05 10:45:01;;;;;;;6.80;3.47;;;;;;;29.54;41.16;101205.47;5040467;28;20443;-83
2022/09/05 10:47:47;;;;;;;8.55;3.30;;;;;;;29.25;39.87;101217.78;5041575;28;20272;-84
2022/09/05 10:50:29;;;;;;;3.72;3.08;;;;;;;29.75;41.09;101209.00;5042852;28;20057;-83
2022/09/05 10:53:21;;;;;;;6.65;2.97;;;;;;;29.97;39.52;101214.09;5044235;28;20049;-82
2022/09/05 10:56:27;;;;;;;3.35;3.05;;;;;;;29.25;39.57;101193.53;5047860;28;20073;-82
2022/09/05 10:59:07;;;;;;;4.05;3.22;;;;;;;28.92;40.46;101202.84;5048728;28;20049;-84
2022/09/05 11:01:40;;;;;;;4.75;3.30;;;;;;;28.89;40.16;101192.63;5047929;28;20049;-83
2022/09/05 11:04:30;;;;;;;5.70;3.30;;;;;;;29.20;39.44;101202.41;5047266;28;20061;-85
2022/09/05 11:07:07;;;;;;;4.57;3.20;;;;;;;29.26;40.16;101187.06;5048329;28;20069;-83
2022/09/05 11:10:02;;;;;;;3.03;2.70;;;;;;;29.22;38.48;101172.50;5046703;28;20128;-83
2022/09/05 11:13:03;;;;;;;5.95;3.17;;;;;;;29.17;38.41;101159.84;5047809;28;20051;-81
2022/09/05 11:15:44;;;;;;;5.43;3.25;;;;;;;29.10;39.51;101183.53;5048071;28;20060;-84
2022/09/05 11:18:34;;;;;;;3.60;3.13;;;;;;;29.48;38.95;101162.59;5047152;28;20056;-83
2022/09/05 11:21:18;;;;;;;6.20;3.55;;;;;;;28.93;38.85;101162.19;5055291;28;20049;-83
2022/09/05 11:23:52;;;;;;;6.80;3.58;;;;;;;29.55;38.69;101155.03;5051235;28;20088;-83
2022/09/05 11:26:42;;;;;;;4.85;3.35;;;;;;;29.71;37.93;101156.66;5047232;28;20051;-83
2022/09/05 11:29:13;;;;;;;5.45;3.40;;;;;;;29.84;38.68;101142.59;5045504;28;20073;-84
2022/09/05 11:32:00;;;;;;;4.60;3.53;;;;;;;29.66;38.89;101149.38;5043350;28;20060;-83
2022/09/05 11:34:54;;;;;;;5.28;3.20;;;;;;;29.73;37.57;101149.13;5035260;28;20097;-84
2022/09/05 11:37:43;;;;;;;3.58;3.15;;;;;;;29.83;37.16;101157.16;5016717;28;20101;-81
2022/09/05 11:40:32;;;;;;;4.03;2.88;;;;;;;29.52;37.26;101172.56;5044419;28;20061;-84
2022/09/05 11:43:37;;;;;;;4.40;3.10;;;;;;;29.21;36.86;101174.41;5038717;28;20046;-84
2022/09/05 11:46:30;;;;;;;4.88;3.38;;;;;;;29.22;37.73;101165.22;5061770;28;20518;-84
2022/09/05 11:49:35;;;;;;;3.75;3.30;;;;;;;29.52;37.27;101166.38;5042281;28;20057;-85
2022/09/05 11:52:47;;;;;;;5.22;3.22;;;;;;;29.74;37.49;101164.22;5044141;28;20045;-84
2022/09/05 11:55:31;;;;;;;4.32;3.05;;;;;;;29.79;37.20;101148.00;5016294;28;20109;-82
2022/09/05 11:58:21;;;;;;;6.28;3.33;;;;;;;29.53;36.99;101162.59;5041997;28;20049;-85
2022/09/05 12:01:01;;;;;;;3.83;3.10;;;;;;;28.97;37.26;101143.63;5043447;28;20053;-82
2022/09/05 12:04:03;;;;;;;5.60;3.17;;;;;;;29.72;36.76;101152.88;5044082;28;20416;-82
2022/09/05 12:07:03;;;;;;;4.53;3.30;;;;;;;29.82;36.74;101152.84;5045665;28;20136;-83
2022/09/05 12:09:44;;;;;;;4.72;3.40;;;;;;;29.70;37.07;101144.25;5043552;28;20053;-84
2022/09/05 12:12:23;;;;;;;3.95;3.13;;;;;;;29.77;37.39;101144.78;5043251;28;20049;-84
2022/09/05 12:15:03;;;;;;;14.30;4.05;;;;;;;30.18;37.74;101144.75;5043794;28;20076;-83
2022/09/05 12:17:36;;;;;;;6.78;3.25;;;;;;;30.39;37.44;101135.47;5044637;28;20049;-83
2022/09/05 12:20:10;;;;;;;7.63;3.70;;;;;;;30.24;36.97;101149.03;5044461;28;20053;-84
2022/09/05 12:22:45;;;;;;;8.15;3.50;;;;;;;30.26;36.55;101141.47;5043250;28;20104;-83
2022/09/05 12:25:26;;;;;;;3.83;3.40;;;;;;;29.92;36.48;101139.34;5046021;28;20184;-83
2022/09/05 12:27:57;;;;;;;6.47;3.60;;;;;;;29.71;37.17;101113.50;5043856;28;20080;-83
2022/09/05 12:30:27;;;;;;;5.90;3.60;;;;;;;29.69;37.17;101121.06;5044591;28;20415;-83
2022/09/05 12:33:02;;;;;;;4.05;3.30;;;;;;;30.01;36.38;101134.25;5044277;28;20314;-84
2022/09/05 12:35:37;;;;;;;8.30;3.60;;;;;;;30.06;36.54;101136.94;5042561;28;20096;-83
2022/09/05 12:38:19;;;;;;;10.35;3.80;;;;;;;29.92;36.54;101128.56;5042748;28;20057;-83
2022/09/05 12:40:53;;;;;;;6.85;3.10;;;;;;;30.03;36.73;101111.31;5041832;28;20085;-83
2022/09/05 12:43:25;;;;;;;5.05;3.30;;;;;;;29.92;36.61;101131.25;5040094;28;20338;-83
2022/09/05 12:45:58;;;;;;;4.53;3.40;;;;;;;29.95;36.75;101119.13;5044135;28;20048;-84
2022/09/05 12:48:35;;;;;;;10.02;3.15;;;;;;;30.34;36.84;101132.78;5049002;28;20104;-82
2022/09/05 12:51:07;;;;;;;4.22;3.17;;;;;;;30.37;36.48;101124.94;5043407;28;20080;-82
2022/09/05 12:53:44;;;;;;;7.07;3.53;;;;;;;29.99;36.85;101137.22;5048513;28;20045;-83
2022/09/05 12:56:21;;;;;;;6.45;3.47;;;;;;;29.87;37.56;101125.88;5041333;28;20132;-85
2022/09/05 12:58:50;;;;;;;6.53;3.50;;;;;;;30.42;37.08;101121.44;5036891;28;20140;-85
2022/09/05 13:01:27;;;;;;;5.15;3.65;;;;;;;29.95;36.48;101117.22;5043001;28;20137;-83
2022/09/05 13:03:59;;;;;;;7.93;3.60;;;;;;;30.00;36.53;101106.47;5043377;28;20129;-84
2022/09/05 13:06:31;;;;;;;5.43;3.63;;;;;;;30.19;36.91;101103.97;5045289;28;20053;-84
2022/09/05 13:09:03;;;;;;;9.85;3.92;;;;;;;30.53;37.56;101081.69;5041235;28;20107;-84
2022/09/05 13:11:36;;;;;;;7.28;3.97;;;;;;;30.68;36.42;101089.75;5039824;28;20067;-83
2022/09/05 13:14:07;;;;;;;6.70;3.85;;;;;;;30.79;36.93;101110.19;5040001;28;20041;-83
2022/09/05 13:16:40;;;;;;;7.10;3.60;;;;;;;30.87;36.55;101082.59;5039881;28;20050;-83
2022/09/05 13:19:24;;;;;;;6.50;4.25;;;;;;;30.88;36.06;101094.19;5039631;28;20061;-83
2022/09/05 13:21:57;;;;;;;6.25;3.40;;;;;;;30.12;36.55;101091.84;5042056;28;20299;-82
2022/09/05 13:24:34;;;;;;;3.90;3.50;;;;;;;30.14;36.48;101073.50;5041024;28;20136;-82
2022/09/05 13:27:22;;;;;;;4.20;3.45;;;;;;;30.34;36.56;101090.41;5046795;28;20105;-84
2022/09/05 13:29:58;;;;;;;5.22;3.50;;;;;;;30.23;37.16;101079.94;5042927;28;20075;-85
2022/09/05 13:32:29;;;;;;;5.03;3.33;;;;;;;29.95;36.71;101055.16;5045683;28;20053;-85